Ladue, Missouri
Current Conditions -  °F | °C
As of 2:51 AM on Saturday 25 Oct 2014 (Local Time) from KSTL Reporting Station
Scattered Clouds Scattered Clouds  
Wind Chill: 63°   Ceiling: Unl
Heat Index: 63°   Visibility: 10mi
Dew Point: 57°   Wind: 6mph
Humidity: 81%   Direction: 260°W
Pressure: 29.98"   Gusts: NA
Location:  38.6383°N, 90.3807°W
Report Text: KSTL 250751Z 26005KT 10SM SCT250 17/14 A2998 RMK AO2 SLP145 T01720139
Loading
Personal Weather Stations






























Interactive Weather Map
Tropical Storm Tracking
New forecast layout! Learn more

10-Day Weather Forecast

Advertisements
Track Severe Weather on mobile